createdAt,value
2023-05-14T00:00:54.779Z,1.6
2023-05-14T00:02:02.541Z,1.9
2023-05-14T00:03:12.394Z,2.2
2023-05-14T00:04:21.882Z,2.6
2023-05-14T00:05:31.525Z,3.2
2023-05-14T00:06:41.191Z,3
2023-05-14T00:07:50.927Z,3.4
2023-05-14T00:08:59.564Z,3.3
2023-05-14T00:10:09.193Z,2.9
2023-05-14T00:11:17.863Z,3.7
2023-05-14T00:12:27.499Z,2.9
2023-05-14T00:13:36.172Z,3.9
2023-05-14T00:14:43.829Z,4.3
2023-05-14T00:15:53.562Z,4.1
2023-05-14T00:17:03.171Z,3.3
2023-05-14T00:18:11.824Z,3.3
2023-05-14T00:19:21.482Z,3.7
2023-05-14T00:20:30.180Z,3.9
2023-05-14T00:21:38.833Z,4.4
2023-05-14T00:22:48.476Z,3.8
2023-05-14T00:23:57.137Z,4.1
2023-05-14T00:25:06.915Z,4
2023-05-14T00:26:15.549Z,4.5
2023-05-14T00:27:25.233Z,3.5
2023-05-14T00:28:34.908Z,3.8
2023-05-14T00:29:44.631Z,3.9
2023-05-14T00:30:53.426Z,3.7
2023-05-14T00:32:02.955Z,3.3
2023-05-14T00:33:11.625Z,4
2023-05-14T00:34:20.350Z,4.1
2023-05-14T00:35:30.068Z,2.5
2023-05-14T00:36:39.728Z,3.5
2023-05-14T00:37:49.383Z,4.1
2023-05-14T00:38:58.088Z,3.9
2023-05-14T00:40:06.857Z,4.4
2023-05-14T00:41:16.457Z,4
2023-05-14T00:42:26.081Z,4.2
2023-05-14T00:43:35.806Z,3.4
2023-05-14T00:44:45.506Z,4.1
2023-05-14T00:45:54.153Z,2.7
2023-05-14T00:47:03.930Z,3.6
2023-05-14T00:48:13.497Z,3.5
2023-05-14T00:49:22.211Z,3.7
2023-05-14T00:50:31.865Z,4
2023-05-14T00:51:39.513Z,3.9
2023-05-14T00:52:49.188Z,4.5
2023-05-14T00:53:57.867Z,3.9
2023-05-14T00:55:06.521Z,3.7
2023-05-14T00:56:16.271Z,4.1
2023-05-14T00:57:23.981Z,4.2
2023-05-14T00:58:32.627Z,4.2
2023-05-14T00:59:42.269Z,4.3
2023-05-14T01:00:50.933Z,4.3
2023-05-14T01:02:00.625Z,3.8
2023-05-14T01:03:10.349Z,4
2023-05-14T01:04:18.952Z,4.3
2023-05-14T01:05:28.621Z,2.8
2023-05-14T01:06:38.304Z,4
2023-05-14T01:07:48.025Z,4.2
2023-05-14T01:08:57.693Z,3.6
2023-05-14T01:10:05.327Z,3.6
2023-05-14T01:11:14.999Z,3.3
2023-05-14T01:12:24.691Z,3.1
2023-05-14T01:13:34.380Z,2.9
2023-05-14T01:14:44.060Z,3.2
2023-05-14T01:15:52.762Z,2.3
2023-05-14T01:17:02.427Z,4.2
2023-05-14T01:18:11.097Z,3
2023-05-14T01:19:20.793Z,3.6
2023-05-14T01:20:30.468Z,3.9
2023-05-14T01:21:39.165Z,3.4
2023-05-14T01:22:48.845Z,3.2
2023-05-14T01:23:57.502Z,3
2023-05-14T01:25:05.191Z,3
2023-05-14T01:26:14.891Z,3.1
2023-05-14T01:27:23.516Z,2.7
2023-05-14T01:28:33.179Z,2.7
2023-05-14T01:29:42.978Z,2.6
2023-05-14T01:30:50.641Z,2.5
2023-05-14T01:32:00.312Z,2.2
2023-05-14T01:33:09.970Z,2.6
2023-05-14T01:34:19.642Z,2.6
2023-05-14T01:35:29.395Z,2.4
2023-05-14T01:36:38.971Z,2.4
2023-05-14T01:37:47.628Z,2
2023-05-14T01:38:57.281Z,2.6
2023-05-14T01:40:06.956Z,2.2
2023-05-14T01:41:16.610Z,2.3
2023-05-14T01:42:25.262Z,2.4
2023-05-14T01:43:33.964Z,2.4
2023-05-14T01:44:42.650Z,2.6
2023-05-14T01:45:51.400Z,2
2023-05-14T01:46:59.981Z,2.1
2023-05-14T01:48:09.661Z,1.9
2023-05-14T01:49:18.342Z,2.2
2023-05-14T01:50:27.986Z,2.2
2023-05-14T01:51:36.630Z,1.9
2023-05-14T01:52:44.283Z,2
2023-05-14T01:53:53.984Z,2
2023-05-14T01:55:01.631Z,1.3
2023-05-14T01:56:11.284Z,1.8
2023-05-14T01:57:20.977Z,2.2
2023-05-14T01:58:28.662Z,2.3
2023-05-14T01:59:38.316Z,2
2023-05-14T02:00:46.983Z,1.9
2023-05-14T02:01:55.706Z,1.9
2023-05-14T02:03:05.353Z,1.7
2023-05-14T02:04:13.069Z,1.7
2023-05-14T02:05:21.755Z,1.8
2023-05-14T02:06:31.411Z,1.8
2023-05-14T02:07:40.079Z,2.2
2023-05-14T02:08:49.759Z,2
2023-05-14T02:09:58.399Z,2
2023-05-14T02:11:08.070Z,1.4
2023-05-14T02:12:17.788Z,1.3
2023-05-14T02:13:25.420Z,1.7
2023-05-14T02:14:35.111Z,2.1
2023-05-14T02:15:44.815Z,1.9
2023-05-14T02:16:52.472Z,1.6
2023-05-14T02:18:01.221Z,2.2
2023-05-14T02:19:09.828Z,1.7
2023-05-14T02:20:18.453Z,2.5
2023-05-14T02:21:28.166Z,1.7
2023-05-14T02:22:36.834Z,2.4
2023-05-14T02:23:45.473Z,2.1
2023-05-14T02:24:55.179Z,2.4
2023-05-14T02:26:02.887Z,2.2
2023-05-14T02:27:12.535Z,2.2
2023-05-14T02:28:21.210Z,2
2023-05-14T02:29:29.862Z,2.1
2023-05-14T02:30:39.581Z,1.7
2023-05-14T02:31:48.288Z,2.1
2023-05-14T02:32:59.050Z,2.1
2023-05-14T02:34:08.604Z,1.5
2023-05-14T02:35:18.326Z,2
2023-05-14T02:36:28.015Z,1.8
2023-05-14T02:37:37.657Z,1.8
2023-05-14T02:38:47.300Z,2.1
2023-05-14T02:39:56.995Z,2.2
2023-05-14T02:41:06.686Z,2.2
2023-05-14T02:42:16.340Z,2.2
2023-05-14T02:43:24.985Z,2
2023-05-14T02:44:32.693Z,1.8
2023-05-14T02:45:42.319Z,1.8
2023-05-14T02:46:51.997Z,1.6
2023-05-14T02:48:00.659Z,2
2023-05-14T02:49:10.282Z,1.5
2023-05-14T02:50:19.083Z,1.8
2023-05-14T02:51:27.637Z,1.8
2023-05-14T02:52:37.296Z,1.7
2023-05-14T02:53:45.998Z,1.6
2023-05-14T02:54:55.662Z,2.2
2023-05-14T02:56:05.368Z,1.8
2023-05-14T02:57:14.025Z,1.8
2023-05-14T02:58:25.490Z,1.9
2023-05-14T02:59:33.413Z,1.8
2023-05-14T03:00:42.137Z,1.4
2023-05-14T03:01:51.792Z,1.5
2023-05-14T03:02:59.410Z,1.6
2023-05-14T03:04:09.058Z,1.1
2023-05-14T03:05:18.745Z,2.1
2023-05-14T03:06:28.378Z,1.6
2023-05-14T03:07:38.050Z,1.4
2023-05-14T03:08:45.738Z,1.7
2023-05-14T03:09:55.400Z,1.8
2023-05-14T03:11:05.056Z,1.6
2023-05-14T03:12:13.776Z,1.6
2023-05-14T03:13:23.463Z,1.9
2023-05-14T03:14:32.111Z,1.7
2023-05-14T03:15:41.769Z,1.7
2023-05-14T03:16:50.458Z,1.8
2023-05-14T03:17:58.212Z,1.6
2023-05-14T03:19:07.862Z,1.1
2023-05-14T03:20:16.452Z,1.3
2023-05-14T03:21:26.085Z,1.5
2023-05-14T03:22:35.796Z,1.2
2023-05-14T03:23:45.409Z,1.2
2023-05-14T03:24:55.077Z,1.2
2023-05-14T03:26:04.741Z,1.1
2023-05-14T03:27:13.469Z,1.1
2023-05-14T03:28:23.098Z,1.4
2023-05-14T03:29:31.781Z,1.2
2023-05-14T03:30:41.452Z,1.5
2023-05-14T03:31:51.151Z,0.9
2023-05-14T03:32:59.897Z,1.1
2023-05-14T03:34:09.478Z,1.2
2023-05-14T03:35:18.138Z,1.2
2023-05-14T03:36:25.813Z,1.1
2023-05-14T03:37:35.444Z,1.2
2023-05-14T03:38:44.118Z,1.8
2023-05-14T03:39:52.797Z,1.6
2023-05-14T03:41:02.470Z,1
2023-05-14T03:42:12.172Z,1.4
2023-05-14T03:43:21.813Z,1.2
2023-05-14T03:44:31.466Z,1.2
2023-05-14T03:45:41.176Z,1.2
2023-05-14T03:46:49.868Z,1.4
2023-05-14T03:47:59.647Z,1.6
2023-05-14T03:49:09.253Z,1.1
2023-05-14T03:50:18.876Z,1.5
2023-05-14T03:51:27.561Z,1.2
2023-05-14T03:52:37.213Z,0.8
2023-05-14T03:53:46.908Z,1.4
2023-05-14T03:54:55.548Z,1.3
2023-05-14T03:56:05.222Z,1.3
2023-05-14T03:57:12.872Z,1.2
2023-05-14T03:58:22.559Z,1.2
2023-05-14T03:59:32.224Z,1.3
2023-05-14T04:00:40.948Z,1.6
2023-05-14T04:01:50.594Z,1.1
2023-05-14T04:03:00.308Z,1.2
2023-05-14T04:04:10.020Z,1.3
2023-05-14T04:05:19.597Z,1.4
2023-05-14T04:06:28.262Z,1.1
2023-05-14T04:07:36.902Z,1.5
2023-05-14T04:08:46.550Z,1.3
2023-05-14T04:09:56.257Z,1.5
2023-05-14T04:11:05.885Z,1.3
2023-05-14T04:12:15.514Z,0.7
2023-05-14T04:13:25.176Z,1.3
2023-05-14T04:14:34.898Z,0.9
2023-05-14T04:15:42.543Z,1.1
2023-05-14T04:16:52.203Z,1.3
2023-05-14T04:18:01.874Z,0.9
2023-05-14T04:19:11.719Z,1.4
2023-05-14T04:20:20.184Z,1.5
2023-05-14T04:21:28.840Z,1.1
2023-05-14T04:22:36.502Z,1.5
2023-05-14T04:23:46.227Z,1.2
2023-05-14T04:24:54.876Z,1
2023-05-14T04:26:04.574Z,1.3
2023-05-14T04:27:14.199Z,1.2
2023-05-14T04:28:21.873Z,1.1
2023-05-14T04:29:31.553Z,1.1
2023-05-14T04:30:40.202Z,1.3
2023-05-14T04:31:48.934Z,1.4
2023-05-14T04:32:58.626Z,1.3
2023-05-14T04:34:06.271Z,1.3
2023-05-14T04:35:15.947Z,1.5
2023-05-14T04:36:25.621Z,1.4
2023-05-14T04:37:33.317Z,1.8
2023-05-14T04:38:42.969Z,1.6
2023-05-14T04:39:52.668Z,2.3
2023-05-14T04:41:01.360Z,2.3
2023-05-14T04:42:11.065Z,2.2
2023-05-14T04:43:19.729Z,2.3
2023-05-14T04:44:29.351Z,1.9
2023-05-14T04:45:39.053Z,1.7
2023-05-14T04:46:46.666Z,1.8
2023-05-14T04:47:56.430Z,2
2023-05-14T04:49:05.004Z,1.9
2023-05-14T04:50:13.686Z,2.4
2023-05-14T04:51:23.311Z,1.8
2023-05-14T04:52:32.000Z,2
2023-05-14T04:53:41.676Z,1.5
2023-05-14T04:54:51.350Z,2.4
2023-05-14T04:55:59.980Z,2
2023-05-14T04:57:09.660Z,1.7
2023-05-14T04:58:18.345Z,2.1
2023-05-14T04:59:26.982Z,1.9
2023-05-14T05:00:36.658Z,1.9
2023-05-14T05:01:45.671Z,2
2023-05-14T05:02:55.069Z,2.2
2023-05-14T05:04:04.695Z,3
2023-05-14T05:05:14.324Z,3.4
2023-05-14T05:06:24.049Z,2.9
2023-05-14T05:07:33.710Z,3.3
2023-05-14T05:08:41.346Z,3.4
2023-05-14T05:09:51.040Z,2
2023-05-14T05:11:00.753Z,3
2023-05-14T05:12:10.394Z,3.2
2023-05-14T05:13:19.073Z,2.4
2023-05-14T05:14:28.770Z,2.3
2023-05-14T05:15:38.435Z,2.2
2023-05-14T05:16:47.082Z,1.8
2023-05-14T05:17:56.825Z,2
2023-05-14T05:19:06.393Z,1.8
2023-05-14T05:20:16.074Z,1.6
2023-05-14T05:21:25.710Z,2.1
2023-05-14T05:22:34.379Z,1.8
2023-05-14T05:23:44.038Z,1.7
2023-05-14T05:24:53.708Z,1.7
2023-05-14T05:26:02.378Z,1.6
2023-05-14T05:27:12.031Z,1.3
2023-05-14T05:28:21.694Z,1.8
2023-05-14T05:29:31.398Z,1.2
2023-05-14T05:30:41.041Z,1.6
2023-05-14T05:31:49.721Z,1.8
2023-05-14T05:32:59.402Z,1.4
2023-05-14T05:34:09.101Z,1.2
2023-05-14T05:35:17.776Z,1.8
2023-05-14T05:36:27.427Z,1.3
2023-05-14T05:37:36.090Z,1.4
2023-05-14T05:38:44.811Z,1.3
2023-05-14T05:39:55.469Z,1.6
2023-05-14T05:41:03.175Z,1.5
2023-05-14T05:42:11.852Z,1.2
2023-05-14T05:43:21.513Z,1.6
2023-05-14T05:44:30.187Z,1.3
2023-05-14T05:45:39.892Z,1.5
2023-05-14T05:46:48.535Z,1.7
2023-05-14T05:47:57.252Z,1.7
2023-05-14T05:49:06.932Z,1.5
2023-05-14T05:50:15.574Z,1.8
2023-05-14T05:51:25.237Z,1.5
2023-05-14T05:52:34.944Z,1.7
2023-05-14T05:53:42.601Z,1.9
2023-05-14T05:54:52.264Z,1.7
2023-05-14T05:56:01.944Z,1.8
2023-05-14T05:57:10.597Z,1.5
2023-05-14T05:58:20.294Z,1.7
2023-05-14T05:59:28.989Z,2.2
2023-05-14T06:00:37.640Z,1.7
2023-05-14T06:01:47.323Z,2
2023-05-14T06:02:56.154Z,1.8
2023-05-14T06:04:05.641Z,2.2
2023-05-14T06:05:15.306Z,1.4
2023-05-14T06:06:23.946Z,1.9
2023-05-14T06:07:33.620Z,1.4
2023-05-14T06:08:43.300Z,1.3
2023-05-14T06:09:52.997Z,1.5
2023-05-14T06:11:02.634Z,1.4
2023-05-14T06:12:11.305Z,1.9
2023-05-14T06:13:21.966Z,1.8
2023-05-14T06:14:31.617Z,1.9
2023-05-14T06:15:40.276Z,1.4
2023-05-14T06:16:50.045Z,2.2
2023-05-14T06:17:59.660Z,2.2
2023-05-14T06:19:09.276Z,1.8
2023-05-14T06:20:18.930Z,1.6
2023-05-14T06:21:28.590Z,1.8
2023-05-14T06:22:38.234Z,1.8
2023-05-14T06:23:46.872Z,2.1
2023-05-14T06:24:55.560Z,2.1
2023-05-14T06:26:05.244Z,1.9
2023-05-14T06:27:13.901Z,1.5
2023-05-14T06:28:22.604Z,1.1
2023-05-14T06:29:32.255Z,1.4
2023-05-14T06:30:41.959Z,1
2023-05-14T06:31:51.612Z,1.2
2023-05-14T06:33:01.372Z,1.4
2023-05-14T06:34:08.944Z,1.3
2023-05-14T06:35:18.647Z,1.5
2023-05-14T06:36:28.300Z,1.4
2023-05-14T06:37:36.948Z,1.5
2023-05-14T06:38:47.641Z,1
2023-05-14T06:39:57.935Z,0.9
2023-05-14T06:41:06.974Z,1.2
2023-05-14T06:42:16.633Z,1.4
2023-05-14T06:43:26.277Z,1.3
2023-05-14T06:44:35.991Z,1.1
2023-05-14T06:45:46.658Z,1.6
2023-05-14T06:46:56.309Z,1.5
2023-05-14T06:48:06.040Z,1.5
2023-05-14T06:49:13.688Z,0.9
2023-05-14T06:50:23.511Z,1.2
2023-05-14T06:51:31.979Z,1.2
2023-05-14T06:52:41.615Z,1.2
2023-05-14T06:53:51.329Z,1.3
2023-05-14T06:55:00.999Z,1.1
2023-05-14T06:56:09.654Z,1
2023-05-14T06:57:19.314Z,1.3
2023-05-14T06:58:27.978Z,1.1
2023-05-14T06:59:37.810Z,1.1
2023-05-14T07:00:46.450Z,1.1
2023-05-14T07:01:56.268Z,1.2
2023-05-14T07:03:05.781Z,1
2023-05-14T07:04:13.475Z,1
2023-05-14T07:05:22.116Z,1
2023-05-14T07:06:31.781Z,1.7
2023-05-14T07:07:40.478Z,1.1
2023-05-14T07:08:50.141Z,1.2
2023-05-14T07:09:58.845Z,1.2
2023-05-14T07:11:08.530Z,1.3
2023-05-14T07:12:18.185Z,1.6
2023-05-14T07:13:28.716Z,1.1
2023-05-14T07:14:38.505Z,1.4
2023-05-14T07:15:46.168Z,1.1
2023-05-14T07:16:54.900Z,1.5
2023-05-14T07:18:04.604Z,1.7
2023-05-14T07:19:12.251Z,1.4
2023-05-14T07:20:21.918Z,1.3
2023-05-14T07:21:31.574Z,1.1
2023-05-14T07:22:39.273Z,1.5
2023-05-14T07:23:47.919Z,1.4
2023-05-14T07:24:56.576Z,1
2023-05-14T07:26:06.274Z,1.2
2023-05-14T07:27:15.941Z,1.4
2023-05-14T07:28:24.609Z,1
2023-05-14T07:29:34.252Z,1.1
2023-05-14T07:30:42.943Z,1.4
2023-05-14T07:31:51.769Z,1.3
2023-05-14T07:33:01.285Z,1
2023-05-14T07:34:10.984Z,1.4
2023-05-14T07:35:18.635Z,1.5
2023-05-14T07:36:28.352Z,1.3
2023-05-14T07:37:35.985Z,1.3
2023-05-14T07:38:45.651Z,1.1
2023-05-14T07:39:55.296Z,1.1
2023-05-14T07:41:02.976Z,1.4
2023-05-14T07:42:19.495Z,1.3
2023-05-14T07:43:22.308Z,1.1
2023-05-14T07:44:30.961Z,0.9
2023-05-14T07:45:40.637Z,1.5
2023-05-14T07:46:48.289Z,1.2
2023-05-14T07:47:58.059Z,1.1
2023-05-14T07:49:07.602Z,1.3
2023-05-14T07:50:17.300Z,1.3
2023-05-14T07:51:26.953Z,1.3
2023-05-14T07:52:35.651Z,1.1
2023-05-14T07:53:45.274Z,0.9
2023-05-14T07:54:54.918Z,1.2
2023-05-14T07:56:03.580Z,1.1
2023-05-14T07:57:13.220Z,1.1
2023-05-14T07:58:21.879Z,1.1
2023-05-14T07:59:30.547Z,1.1
2023-05-14T08:00:40.211Z,0.7
2023-05-14T08:01:47.903Z,0.8
2023-05-14T08:02:56.619Z,1.7
2023-05-14T08:04:06.364Z,0.8
2023-05-14T08:05:15.941Z,1.3
2023-05-14T08:06:25.579Z,0.9
2023-05-14T08:07:34.215Z,0.9
2023-05-14T08:08:42.932Z,0.7
2023-05-14T08:09:52.586Z,0.6
2023-05-14T08:11:01.243Z,0.9
2023-05-14T08:12:10.894Z,1.1
2023-05-14T08:13:20.600Z,0.9
2023-05-14T08:14:30.280Z,0.7
2023-05-14T08:15:39.951Z,0.9
2023-05-14T08:16:48.659Z,1.2
2023-05-14T08:17:57.317Z,0.8
2023-05-14T08:19:07.031Z,0.8
2023-05-14T08:20:15.652Z,0.7
2023-05-14T08:21:24.299Z,0.8
2023-05-14T08:22:33.981Z,0.6
2023-05-14T08:23:43.650Z,0.5
2023-05-14T08:24:53.345Z,0.7
2023-05-14T08:26:01.980Z,0.5
2023-05-14T08:27:09.641Z,0.9
2023-05-14T08:28:19.324Z,0.8
2023-05-14T08:29:27.981Z,0.9
2023-05-14T08:30:36.676Z,0.8
2023-05-14T08:31:46.342Z,0.6
2023-05-14T08:32:55.078Z,0.5
2023-05-14T08:34:04.698Z,0.5
2023-05-14T08:35:14.401Z,0.5
2023-05-14T08:36:22.064Z,0.7
2023-05-14T08:37:31.782Z,0.6
2023-05-14T08:38:40.433Z,1.1
2023-05-14T08:39:49.098Z,1
2023-05-14T08:40:58.896Z,0.7
2023-05-14T08:42:08.449Z,0.8
2023-05-14T08:43:18.094Z,0.9
2023-05-14T08:44:26.755Z,0.6
2023-05-14T08:45:35.381Z,0.8
2023-05-14T08:46:45.090Z,0.9
2023-05-14T08:47:54.805Z,0.7
2023-05-14T08:49:03.500Z,0.8
2023-05-14T08:50:13.092Z,1.1
2023-05-14T08:51:21.810Z,1
2023-05-14T08:52:31.454Z,0.8
2023-05-14T08:53:40.106Z,0.7
2023-05-14T08:54:48.758Z,0.8
2023-05-14T08:55:58.428Z,0.9
2023-05-14T08:57:08.254Z,1.2
2023-05-14T08:58:16.792Z,0.8
2023-05-14T08:59:26.448Z,0.8
2023-05-14T09:00:36.163Z,1.1
2023-05-14T09:01:45.828Z,0.5
2023-05-14T09:02:55.512Z,1
2023-05-14T09:04:03.134Z,1.3
2023-05-14T09:05:12.822Z,1.1
2023-05-14T09:06:22.550Z,0.7
2023-05-14T09:07:32.209Z,0.4
2023-05-14T09:08:40.910Z,1
2023-05-14T09:09:50.590Z,1.2
2023-05-14T09:10:59.271Z,0.9
2023-05-14T09:12:06.919Z,0.8
2023-05-14T09:13:16.606Z,1
2023-05-14T09:14:26.247Z,0.9
2023-05-14T09:15:34.884Z,0.6
2023-05-14T09:16:44.592Z,1
2023-05-14T09:17:53.215Z,0.7
2023-05-14T09:19:02.914Z,0.8
2023-05-14T09:20:12.560Z,1.3
2023-05-14T09:21:22.219Z,1.2
2023-05-14T09:22:31.883Z,0.8
2023-05-14T09:23:40.546Z,0.8
2023-05-14T09:24:48.315Z,0.7
2023-05-14T09:25:57.991Z,0.6
2023-05-14T09:27:06.654Z,0.8
2023-05-14T09:28:16.323Z,1.1
2023-05-14T09:29:26.017Z,0.6
2023-05-14T09:30:33.637Z,0.5
2023-05-14T09:31:43.366Z,0.7
2023-05-14T09:32:53.019Z,0.9
2023-05-14T09:34:01.641Z,0.7
2023-05-14T09:35:11.296Z,0.9
2023-05-14T09:36:19.955Z,0.9
2023-05-14T09:37:29.597Z,0.8
2023-05-14T09:38:39.416Z,0.7
2023-05-14T09:39:48.069Z,0.7
2023-05-14T09:40:57.721Z,0.8
2023-05-14T09:42:07.362Z,0.5
2023-05-14T09:43:16.028Z,0.7
2023-05-14T09:44:24.698Z,0.8
2023-05-14T09:45:33.370Z,1.1
2023-05-14T09:46:43.003Z,1
2023-05-14T09:47:52.714Z,0.8
2023-05-14T09:49:00.372Z,0.8
2023-05-14T09:50:10.023Z,0.8
2023-05-14T09:51:18.669Z,0.7
2023-05-14T09:52:28.347Z,0.8
2023-05-14T09:53:37.985Z,0.9
2023-05-14T09:54:47.631Z,1.2
2023-05-14T09:55:57.280Z,1
2023-05-14T09:57:06.952Z,0.8
2023-05-14T09:58:15.599Z,0.9
2023-05-14T09:59:25.246Z,0.9
2023-05-14T10:00:34.894Z,1.1
2023-05-14T10:01:43.650Z,1.1
2023-05-14T10:02:53.316Z,0.8
2023-05-14T10:04:01.928Z,1
2023-05-14T10:05:11.569Z,0.8
2023-05-14T10:06:21.287Z,1.1
2023-05-14T10:07:30.039Z,0.8
2023-05-14T10:08:39.616Z,0.4
2023-05-14T10:09:48.323Z,0.7
2023-05-14T10:10:55.997Z,1.1
2023-05-14T10:12:05.702Z,1
2023-05-14T10:13:13.411Z,0.8
2023-05-14T10:14:23.065Z,0.5
2023-05-14T10:15:31.788Z,0.6
2023-05-14T10:16:40.489Z,1
2023-05-14T10:17:50.185Z,0.7
2023-05-14T10:18:59.885Z,0.7
2023-05-14T10:20:08.489Z,0.5
2023-05-14T10:21:18.213Z,0.7
2023-05-14T10:22:27.878Z,0.7
2023-05-14T10:23:37.559Z,0.7
2023-05-14T10:24:47.260Z,0.8
2023-05-14T10:25:56.082Z,0.6
2023-05-14T10:27:05.817Z,0.7
2023-05-14T10:28:15.476Z,1.1
2023-05-14T10:29:25.203Z,0.8
2023-05-14T10:30:34.954Z,0.7
2023-05-14T10:31:43.708Z,0.7
2023-05-14T10:32:53.390Z,0.6
2023-05-14T10:34:03.050Z,0.7
2023-05-14T10:35:10.763Z,0.9
2023-05-14T10:36:20.489Z,0.5
2023-05-14T10:37:29.110Z,0.5
2023-05-14T10:38:37.824Z,0.8
2023-05-14T10:39:47.518Z,0.8
2023-05-14T10:40:57.192Z,0.6
2023-05-14T10:42:05.860Z,0.7
2023-05-14T10:43:15.588Z,0.5
2023-05-14T10:44:25.261Z,0.5
2023-05-14T10:45:34.926Z,0.5
2023-05-14T10:46:44.630Z,0.5
2023-05-14T10:47:54.280Z,0.7
2023-05-14T10:49:03.996Z,0.9
2023-05-14T10:50:12.634Z,1.2
2023-05-14T10:51:22.334Z,0.9
2023-05-14T10:52:31.991Z,1.1
2023-05-14T10:53:40.650Z,0.8
2023-05-14T10:54:50.327Z,0.6
2023-05-14T10:55:59.986Z,0.7
2023-05-14T10:57:08.653Z,0.7
2023-05-14T10:58:18.323Z,0.5
2023-05-14T10:59:25.973Z,0.7
2023-05-14T11:00:35.652Z,0.7
2023-05-14T11:01:45.346Z,0.5
2023-05-14T11:02:54.062Z,0.5
2023-05-14T11:04:03.741Z,0.5
2023-05-14T11:05:13.416Z,0.7
2023-05-14T11:06:23.210Z,0.6
2023-05-14T11:07:31.912Z,0.8
2023-05-14T11:08:40.570Z,0.5
2023-05-14T11:09:50.209Z,0.8
2023-05-14T11:10:58.946Z,0.9
2023-05-14T11:12:07.610Z,1.1
2023-05-14T11:13:17.288Z,0.7
2023-05-14T11:14:24.973Z,0.8
2023-05-14T11:15:34.660Z,0.6
2023-05-14T11:16:43.398Z,0.6
2023-05-14T11:17:52.073Z,0.6
2023-05-14T11:19:01.926Z,0.9
2023-05-14T11:20:10.436Z,0.9
2023-05-14T11:21:20.236Z,0.6
2023-05-14T11:22:29.808Z,0.5
2023-05-14T11:23:38.498Z,0.4
2023-05-14T11:24:48.212Z,0.5
2023-05-14T11:25:57.864Z,0.6
2023-05-14T11:27:06.521Z,0.6
2023-05-14T11:28:16.202Z,0.5
2023-05-14T11:29:24.868Z,0.7
2023-05-14T11:30:34.563Z,0.7
2023-05-14T11:31:44.317Z,0.8
2023-05-14T11:32:53.957Z,0.6
2023-05-14T11:34:03.606Z,0.6
2023-05-14T11:35:13.311Z,0.8
2023-05-14T11:36:22.090Z,0.7
2023-05-14T11:37:31.774Z,0.4
2023-05-14T11:38:40.435Z,0.4
2023-05-14T11:39:50.219Z,0.5
2023-05-14T11:40:58.890Z,0.4
2023-05-14T11:42:07.525Z,0.8
2023-05-14T11:43:17.234Z,0.5
2023-05-14T11:44:25.932Z,0.4
2023-05-14T11:45:34.662Z,0.4
2023-05-14T11:46:44.325Z,0.3
2023-05-14T11:47:53.046Z,0.3
2023-05-14T11:49:02.717Z,0.6
2023-05-14T11:50:12.344Z,0.4
2023-05-14T11:51:21.042Z,0.3
2023-05-14T11:52:30.761Z,0.7
2023-05-14T11:53:39.452Z,0.4
2023-05-14T11:54:48.099Z,0.2
2023-05-14T11:55:57.800Z,0.2
2023-05-14T11:57:05.436Z,0.3
2023-05-14T11:58:14.121Z,0.1
2023-05-14T11:59:23.806Z,0.2
2023-05-14T12:00:32.471Z,0.4
2023-05-14T12:01:41.145Z,0.4
2023-05-14T12:02:50.847Z,0.4
2023-05-14T12:03:58.578Z,0.3
2023-05-14T12:05:08.202Z,0.7
2023-05-14T12:06:16.868Z,0.6
2023-05-14T12:07:25.592Z,0.4
2023-05-14T12:08:35.278Z,0.2
2023-05-14T12:09:45.381Z,0.3
2023-05-14T12:10:54.565Z,0.3
2023-05-14T12:12:03.320Z,0.4
2023-05-14T12:13:12.962Z,0.2
2023-05-14T12:14:22.633Z,0.3
2023-05-14T12:15:32.318Z,0.3
2023-05-14T12:16:41.008Z,0.4
2023-05-14T12:17:50.725Z,0.3
2023-05-14T12:18:59.361Z,0.3
2023-05-14T12:20:08.970Z,0.2
2023-05-14T12:21:16.720Z,0.2
2023-05-14T12:22:26.435Z,0.2
2023-05-14T12:23:36.127Z,0.2
2023-05-14T12:24:45.924Z,0.3
2023-05-14T12:25:55.458Z,0.2
2023-05-14T12:27:05.142Z,0.3
2023-05-14T12:28:13.805Z,0.1
2023-05-14T12:29:23.474Z,0.2
2023-05-14T12:30:33.164Z,0.2
2023-05-14T12:31:41.890Z,0.3
2023-05-14T12:32:51.952Z,0.3
2023-05-14T12:34:00.207Z,0.2
2023-05-14T12:35:09.872Z,0.1
2023-05-14T12:36:22.045Z,0.2
2023-05-14T12:37:30.046Z,0.2
2023-05-14T12:38:37.830Z,0.3
2023-05-14T12:39:45.476Z,0.3
2023-05-14T12:40:55.190Z,0.2
2023-05-14T12:42:04.816Z,0.2
2023-05-14T12:43:14.465Z,0.2
2023-05-14T12:44:23.124Z,0.3
2023-05-14T12:45:31.815Z,0.2
2023-05-14T12:46:39.517Z,0.1
2023-05-14T12:47:49.186Z,0.1
2023-05-14T12:48:58.812Z,0.1
2023-05-14T12:50:08.541Z,0.1
2023-05-14T12:51:18.200Z,0.1
2023-05-14T12:53:38.472Z,0.1
2023-05-14T12:54:48.159Z,0.3
2023-05-14T12:55:56.806Z,0.2
2023-05-14T12:57:06.474Z,0.2
2023-05-14T12:58:16.111Z,0.2
2023-05-14T12:59:25.840Z,0.2
2023-05-14T13:00:35.490Z,0.2
2023-05-14T13:01:44.149Z,0.4
2023-05-14T13:02:53.852Z,0.2
2023-05-14T13:04:03.610Z,0.2
2023-05-14T13:05:13.216Z,0.2
2023-05-14T13:06:22.852Z,0.2
2023-05-14T13:07:31.497Z,0.3
2023-05-14T13:08:42.578Z,0.1
2023-05-14T13:09:49.898Z,0.1
2023-05-14T13:10:58.562Z,0.1
2023-05-14T13:12:08.235Z,0.1
2023-05-14T13:13:17.980Z,0.2
2023-05-14T13:14:26.655Z,0.2
2023-05-14T13:15:36.285Z,0.3
2023-05-14T13:16:43.962Z,0.2
2023-05-14T13:17:53.761Z,0.2
2023-05-14T13:19:02.410Z,0.3
2023-05-14T13:20:11.088Z,0.2
2023-05-14T13:21:20.718Z,0.3
2023-05-14T13:22:30.368Z,0.3
2023-05-14T13:23:39.054Z,0.2
2023-05-14T13:24:48.721Z,0.3
2023-05-14T13:25:57.393Z,0.1
2023-05-14T13:27:07.079Z,0.1
2023-05-14T13:28:15.807Z,0.2
2023-05-14T13:29:24.489Z,0.2
2023-05-14T13:30:34.211Z,0.2
2023-05-14T13:31:41.939Z,0.1
2023-05-14T13:32:50.624Z,0.2
2023-05-14T13:34:00.265Z,0.1
2023-05-14T13:35:07.951Z,0.3
2023-05-14T13:36:17.598Z,0.1
2023-05-14T13:37:26.311Z,0.1
2023-05-14T13:38:34.966Z,0.2
2023-05-14T13:39:44.604Z,0.2
2023-05-14T13:40:53.256Z,0.3
2023-05-14T13:42:02.937Z,0.4
2023-05-14T13:43:12.597Z,0.1
2023-05-14T13:44:21.251Z,0.2
2023-05-14T13:45:30.960Z,0.3
2023-05-14T13:46:40.640Z,0.1
2023-05-14T13:47:51.542Z,0.2
2023-05-14T13:49:00.974Z,0.2
2023-05-14T13:50:10.619Z,0.2
2023-05-14T13:51:19.354Z,0
2023-05-14T13:52:29.043Z,0.1
2023-05-14T13:53:37.688Z,0.1
2023-05-14T13:54:47.345Z,0.1
2023-05-14T13:55:57.036Z,0.1
2023-05-14T13:57:05.694Z,0.1
2023-05-14T13:58:15.343Z,0.1
2023-05-14T13:59:25.056Z,0.1
2023-05-14T14:00:34.724Z,0.1
2023-05-14T14:01:44.372Z,0
2023-05-14T14:02:53.055Z,0
2023-05-14T14:04:02.702Z,0.1
2023-05-14T14:05:11.411Z,0
2023-05-14T14:06:21.034Z,0.3
2023-05-14T14:07:30.680Z,0.1
2023-05-14T14:08:43.813Z,0
2023-05-14T14:09:53.490Z,0.2
2023-05-14T14:11:02.131Z,0.1
2023-05-14T14:12:11.823Z,0
2023-05-14T14:13:21.475Z,0.1
2023-05-14T14:14:30.173Z,0.1
2023-05-14T14:15:38.895Z,0.1
2023-05-14T14:16:48.556Z,0.1
2023-05-14T14:17:56.279Z,0
2023-05-14T14:19:04.964Z,0
2023-05-14T14:20:14.573Z,0
2023-05-14T14:21:23.213Z,0.1
2023-05-14T14:22:32.883Z,0.1
2023-05-14T14:23:41.573Z,0
2023-05-14T14:24:50.241Z,0.1
2023-05-14T14:25:59.920Z,0.1
2023-05-14T14:27:08.572Z,0.1
2023-05-14T14:28:18.258Z,0
2023-05-14T14:29:27.911Z,0
2023-05-14T14:30:36.563Z,0
2023-05-14T14:31:46.296Z,0.1
2023-05-14T14:32:55.967Z,0.1
2023-05-14T14:34:05.642Z,0.2
2023-05-14T14:35:15.295Z,0
2023-05-14T14:36:25.433Z,0
2023-05-14T14:37:35.139Z,0.1
2023-05-14T14:38:44.811Z,0
2023-05-14T14:39:53.466Z,0
2023-05-14T14:41:03.127Z,0
2023-05-14T14:42:11.784Z,0
2023-05-14T14:43:19.444Z,0
2023-05-14T14:44:28.110Z,0
2023-05-14T14:45:37.784Z,0
2023-05-14T14:46:47.412Z,0
2023-05-14T14:47:57.190Z,0
2023-05-14T14:49:05.772Z,0
2023-05-14T14:50:15.449Z,0
2023-05-14T14:51:25.130Z,0
2023-05-14T14:52:33.813Z,0
2023-05-14T14:53:43.469Z,0.1
2023-05-14T14:54:53.117Z,0
2023-05-14T14:56:02.790Z,0
2023-05-14T14:57:12.457Z,0
2023-05-14T14:58:20.129Z,0
2023-05-14T14:59:29.778Z,0
2023-05-14T15:00:39.437Z,0
2023-05-14T15:01:49.153Z,0
2023-05-14T15:02:58.900Z,0
2023-05-14T15:04:07.452Z,0
2023-05-14T15:05:17.120Z,0
2023-05-14T15:06:24.791Z,0.1
2023-05-14T15:07:34.455Z,0
2023-05-14T15:08:44.124Z,0.2
2023-05-14T15:09:51.765Z,0
2023-05-14T15:11:01.527Z,0
2023-05-14T15:12:11.239Z,0
2023-05-14T15:13:19.863Z,0
2023-05-14T15:14:29.507Z,0
2023-05-14T15:15:38.178Z,0
2023-05-14T15:16:48.891Z,0.1
2023-05-14T15:17:57.587Z,0
2023-05-14T15:19:06.328Z,0
2023-05-14T15:20:15.980Z,0
2023-05-14T15:21:24.635Z,0
2023-05-14T15:22:33.277Z,0
2023-05-14T15:23:42.948Z,0
2023-05-14T15:24:51.638Z,0
2023-05-14T15:26:01.400Z,0
2023-05-14T15:27:10.977Z,0.1
2023-05-14T15:28:19.636Z,0
2023-05-14T15:29:29.393Z,0.2
2023-05-14T15:30:38.089Z,0
2023-05-14T15:31:46.853Z,0
2023-05-14T15:32:56.506Z,0
2023-05-14T15:34:06.135Z,0.1
2023-05-14T15:35:14.862Z,0
2023-05-14T15:36:24.500Z,0
2023-05-14T15:37:34.153Z,0
2023-05-14T15:38:42.826Z,0.1
2023-05-14T15:39:52.493Z,0
2023-05-14T15:41:02.154Z,0.2
2023-05-14T15:42:11.821Z,0
2023-05-14T15:43:21.509Z,0
2023-05-14T15:44:31.211Z,0
2023-05-14T15:45:40.884Z,0
2023-05-14T15:46:48.595Z,0
2023-05-14T15:47:58.266Z,0
2023-05-14T15:49:07.943Z,0
2023-05-14T15:50:16.606Z,0
2023-05-14T15:51:26.311Z,0
2023-05-14T15:52:34.966Z,0.1
2023-05-14T15:53:44.672Z,0
2023-05-14T15:54:54.305Z,0
2023-05-14T15:56:03.960Z,0.1
2023-05-14T15:57:13.655Z,0.2
2023-05-14T15:58:22.326Z,0.1
2023-05-14T15:59:31.007Z,0.2
2023-05-14T16:00:40.674Z,0
2023-05-14T16:01:48.392Z,0.2
2023-05-14T16:02:58.085Z,0.2
2023-05-14T16:04:07.822Z,0.5